createdAt,value
2022-08-22T00:00:17.271Z,20.36
2022-08-22T00:03:01.249Z,27.04
2022-08-22T00:03:06.629Z,21.16
2022-08-22T00:06:05.783Z,20.29
2022-08-22T00:08:43.941Z,20.28
2022-08-22T00:11:25.555Z,20.22
2022-08-22T00:14:02.154Z,20.20
2022-08-22T00:16:39.034Z,20.17
2022-08-22T00:19:19.457Z,20.09
2022-08-22T00:22:01.177Z,19.96
2022-08-22T00:24:37.243Z,19.88
2022-08-22T00:27:12.634Z,19.78
2022-08-22T00:29:45.946Z,19.78
2022-08-22T00:32:21.092Z,19.74
2022-08-22T00:34:58.637Z,19.69
2022-08-22T00:37:34.338Z,19.68
2022-08-22T00:40:21.523Z,19.67
2022-08-22T00:43:14.227Z,19.64
2022-08-22T00:46:11.220Z,19.59
2022-08-22T00:49:15.321Z,19.58
2022-08-22T00:52:14.750Z,19.58
2022-08-22T00:55:17.316Z,19.50
2022-08-22T00:58:17.017Z,19.47
2022-08-22T01:00:55.976Z,19.46
2022-08-22T01:03:56.292Z,19.38
2022-08-22T01:06:43.842Z,19.37
2022-08-22T01:09:34.334Z,19.36
2022-08-22T01:12:30.095Z,19.34
2022-08-22T01:15:05.448Z,19.31
2022-08-22T01:18:00.621Z,19.28
2022-08-22T01:21:08.199Z,19.20
2022-08-22T01:24:29.595Z,19.12
2022-08-22T01:27:37.897Z,19.08
2022-08-22T01:30:51.573Z,19.04
2022-08-22T01:34:12.884Z,18.96
2022-08-22T01:37:18.638Z,18.92
2022-08-22T01:41:01.122Z,18.81
2022-08-22T01:44:09.255Z,18.76
2022-08-22T01:46:51.086Z,18.76
2022-08-22T01:49:25.736Z,18.72
2022-08-22T01:52:03.087Z,18.65
2022-08-22T01:54:50.300Z,18.64
2022-08-22T01:57:19.756Z,18.61
2022-08-22T01:59:52.670Z,18.53
2022-08-22T02:02:46.722Z,18.46
2022-08-22T02:05:27.544Z,18.42
2022-08-22T02:08:03.155Z,18.37
2022-08-22T02:10:55.364Z,18.33
2022-08-22T02:13:47.872Z,18.29
2022-08-22T02:16:22.559Z,18.26
2022-08-22T02:18:59.534Z,18.16
2022-08-22T02:21:44.299Z,18.12
2022-08-22T02:24:27.553Z,18.07
2022-08-22T02:27:11.649Z,17.99
2022-08-22T02:29:46.343Z,17.97
2022-08-22T02:32:23.803Z,17.95
2022-08-22T02:35:03.524Z,17.93
2022-08-22T02:37:40.222Z,17.87
2022-08-22T02:40:17.498Z,17.84
2022-08-22T02:42:56.556Z,17.82
2022-08-22T02:45:36.727Z,17.82
2022-08-22T02:48:18.517Z,17.80
2022-08-22T02:50:54.486Z,17.77
2022-08-22T02:53:34.451Z,17.74
2022-08-22T02:56:10.343Z,17.71
2022-08-22T02:58:46.789Z,17.65
2022-08-22T03:01:35.338Z,17.62
2022-08-22T03:04:28.325Z,17.55
2022-08-22T03:07:14.110Z,17.51
2022-08-22T03:09:50.704Z,17.43
2022-08-22T03:12:27.309Z,17.37
2022-08-22T03:15:03.705Z,17.33
2022-08-22T03:17:37.613Z,17.26
2022-08-22T03:20:11.954Z,17.23
2022-08-22T03:22:50.230Z,17.18
2022-08-22T03:25:31.403Z,17.17
2022-08-22T03:28:05.294Z,17.20
2022-08-22T03:30:40.311Z,17.16
2022-08-22T03:33:19.830Z,17.06
2022-08-22T03:36:06.473Z,16.96
2022-08-22T03:39:17.050Z,16.90
2022-08-22T03:42:39.736Z,16.85
2022-08-22T03:46:07.135Z,16.83
2022-08-22T03:49:06.196Z,16.81
2022-08-22T03:51:47.244Z,16.80
2022-08-22T03:54:55.677Z,16.82
2022-08-22T03:58:27.409Z,16.81
2022-08-22T04:01:25.431Z,16.77
2022-08-22T04:04:49.145Z,16.77
2022-08-22T04:08:04.198Z,16.69
2022-08-22T04:11:04.152Z,16.63
2022-08-22T04:13:56.204Z,16.57
2022-08-22T04:17:02.050Z,16.49
2022-08-22T04:20:09.667Z,16.47
2022-08-22T04:23:41.233Z,16.44
2022-08-22T04:26:17.010Z,16.44
2022-08-22T04:28:52.063Z,16.41
2022-08-22T04:31:27.707Z,16.38
2022-08-22T04:34:04.880Z,16.36
2022-08-22T04:36:42.113Z,16.35
2022-08-22T04:39:19.457Z,16.29
2022-08-22T04:41:54.694Z,16.28
2022-08-22T04:44:37.828Z,16.27
2022-08-22T04:47:15.321Z,16.30
2022-08-22T04:49:51.376Z,16.33
2022-08-22T04:52:31.622Z,16.33
2022-08-22T04:55:12.576Z,16.29
2022-08-22T04:57:58.744Z,16.27
2022-08-22T05:00:41.835Z,16.25
2022-08-22T05:03:15.443Z,16.24
2022-08-22T05:05:46.262Z,16.24
2022-08-22T05:08:23.757Z,16.23
2022-08-22T05:10:53.654Z,16.24
2022-08-22T05:13:29.590Z,16.25
2022-08-22T05:16:04.415Z,16.24
2022-08-22T05:18:39.752Z,16.27
2022-08-22T05:21:13.946Z,16.29
2022-08-22T05:23:52.796Z,16.31
2022-08-22T05:26:22.579Z,16.35
2022-08-22T05:28:56.444Z,16.37
2022-08-22T05:31:32.601Z,16.44
2022-08-22T05:34:06.385Z,16.46
2022-08-22T05:36:40.396Z,16.45
2022-08-22T05:39:12.920Z,16.45
2022-08-22T05:41:43.449Z,16.44
2022-08-22T05:44:25.200Z,16.43
2022-08-22T05:47:02.570Z,16.44
2022-08-22T05:49:38.849Z,16.47
2022-08-22T05:52:22.672Z,16.51
2022-08-22T05:54:58.574Z,16.49
2022-08-22T05:57:32.273Z,16.49
2022-08-22T06:00:07.491Z,16.53
2022-08-22T06:02:56.653Z,16.55
2022-08-22T06:05:28.714Z,16.58
2022-08-22T06:08:08.004Z,16.63
2022-08-22T06:10:44.755Z,16.61
2022-08-22T06:13:24.686Z,16.62
2022-08-22T06:16:05.606Z,16.66
2022-08-22T06:18:40.108Z,16.66
2022-08-22T06:21:12.910Z,16.66
2022-08-22T06:23:46.667Z,16.67
2022-08-22T06:26:20.634Z,16.66
2022-08-22T06:28:55.735Z,16.70
2022-08-22T06:31:28.563Z,16.66
2022-08-22T06:34:04.900Z,16.66
2022-08-22T06:36:36.659Z,16.66
2022-08-22T06:39:12.737Z,16.61
2022-08-22T06:41:49.210Z,16.63
2022-08-22T06:44:23.316Z,16.67
2022-08-22T06:46:56.533Z,16.66
2022-08-22T06:49:29.107Z,16.71
2022-08-22T06:52:04.499Z,16.75
2022-08-22T06:54:37.339Z,16.81
2022-08-22T06:57:07.723Z,16.78
2022-08-22T06:59:39.719Z,16.76
2022-08-22T07:02:23.017Z,16.83
2022-08-22T07:04:53.404Z,16.90
2022-08-22T07:07:26.676Z,16.90
2022-08-22T07:09:57.581Z,16.94
2022-08-22T07:12:31.229Z,16.99
2022-08-22T07:15:11.176Z,17.05
2022-08-22T07:35:38.280Z,17.33
2022-08-22T07:38:21.221Z,17.40
2022-08-22T07:41:00.505Z,17.47
2022-08-22T07:43:33.312Z,17.53
2022-08-22T07:46:12.238Z,17.56
2022-08-22T07:49:08.997Z,17.64
2022-08-22T07:51:44.689Z,17.71
2022-08-22T07:54:14.753Z,17.75
2022-08-22T07:56:54.213Z,17.83
2022-08-22T07:59:24.449Z,17.90
2022-08-22T08:01:58.360Z,17.94
2022-08-22T08:04:30.834Z,17.96
2022-08-22T08:07:03.575Z,18.01
2022-08-22T08:09:36.116Z,18.08
2022-08-22T08:12:06.900Z,18.16
2022-08-22T08:14:39.835Z,18.23
2022-08-22T08:17:12.589Z,18.32
2022-08-22T08:19:43.994Z,18.41
2022-08-22T08:22:19.812Z,18.46
2022-08-22T08:24:50.089Z,18.53
2022-08-22T08:27:41.502Z,18.60
2022-08-22T08:30:16.234Z,18.70
2022-08-22T08:32:47.653Z,18.76
2022-08-22T08:35:26.710Z,18.81
2022-08-22T08:38:03.491Z,18.90
2022-08-22T08:40:58.704Z,18.98
2022-08-22T08:43:38.239Z,19.09
2022-08-22T08:46:51.853Z,19.21
2022-08-22T08:49:57.640Z,19.30
2022-08-22T08:53:15.404Z,19.38
2022-08-22T08:55:53.358Z,19.44
2022-08-22T08:58:50.975Z,19.52
2022-08-22T09:01:42.226Z,19.63
2022-08-22T09:04:42.303Z,19.70
2022-08-22T09:08:00.777Z,19.81
2022-08-22T09:11:09.695Z,19.93
2022-08-22T09:13:54.568Z,20.04
2022-08-22T09:16:48.161Z,20.14
2022-08-22T09:19:57.211Z,20.19
2022-08-22T09:23:35.959Z,20.30
2022-08-22T09:26:14.823Z,20.38
2022-08-22T09:28:54.433Z,20.46
2022-08-22T09:31:47.655Z,20.53
2022-08-22T09:34:28.594Z,20.62
2022-08-22T09:37:19.459Z,20.67
2022-08-22T09:39:59.715Z,20.78
2022-08-22T09:42:44.967Z,20.81
2022-08-22T09:45:40.820Z,20.93
2022-08-22T09:48:34.359Z,21.04
2022-08-22T09:51:31.565Z,21.16
2022-08-22T09:54:18.887Z,21.29
2022-08-22T09:57:19.402Z,21.27
2022-08-22T10:00:25.759Z,21.29
2022-08-22T10:03:07.158Z,21.38
2022-08-22T10:05:46.375Z,21.44
2022-08-22T10:08:39.638Z,21.50
2022-08-22T10:11:31.316Z,21.62
2022-08-22T10:14:06.129Z,21.65
2022-08-22T10:16:52.081Z,21.63
2022-08-22T10:19:28.625Z,21.76
2022-08-22T10:22:40.973Z,21.72
2022-08-22T10:25:26.229Z,21.68
2022-08-22T10:28:15.816Z,21.71
2022-08-22T10:31:02.356Z,21.79
2022-08-22T10:33:37.989Z,21.87
2022-08-22T10:36:12.941Z,21.98
2022-08-22T10:38:47.783Z,22.02
2022-08-22T10:41:30.504Z,22.01
2022-08-22T10:44:12.720Z,22.01
2022-08-22T10:46:49.832Z,22.02
2022-08-22T10:49:28.271Z,22.01
2022-08-22T10:52:15.900Z,22.01
2022-08-22T10:54:49.402Z,22.06
2022-08-22T10:57:36.274Z,22.12
2022-08-22T11:00:15.553Z,22.23
2022-08-22T11:03:02.401Z,22.29
2022-08-22T11:05:42.826Z,22.27
2022-08-22T11:08:40.998Z,22.25
2022-08-22T11:11:21.541Z,22.37
2022-08-22T11:14:20.932Z,22.55
2022-08-22T11:17:00.681Z,22.62
2022-08-22T11:19:52.896Z,22.70
2022-08-22T11:22:32.656Z,22.88
2022-08-22T11:25:38.606Z,23.03
2022-08-22T11:28:38.464Z,23.09
2022-08-22T11:31:16.351Z,23.09
2022-08-22T11:33:54.208Z,23.12
2022-08-22T11:36:31.577Z,23.06
2022-08-22T11:39:18.337Z,23.02
2022-08-22T11:41:56.326Z,23.02
2022-08-22T11:44:34.335Z,23.02
2022-08-22T11:47:12.993Z,23.04
2022-08-22T11:49:54.131Z,23.03
2022-08-22T11:52:51.804Z,23.05
2022-08-22T11:55:32.713Z,23.07
2022-08-22T11:58:29.105Z,23.05
2022-08-22T12:01:03.843Z,23.06
2022-08-22T12:03:55.665Z,23.06
2022-08-22T12:06:51.443Z,23.10
2022-08-22T12:09:50.528Z,23.14
2022-08-22T12:12:27.641Z,23.16
2022-08-22T12:15:02.345Z,23.17
2022-08-22T12:18:20.131Z,23.19
2022-08-22T12:21:49.605Z,23.43
2022-08-22T12:24:34.256Z,23.77
2022-08-22T12:27:48.067Z,24.09
2022-08-22T12:30:33.212Z,24.34
2022-08-22T12:33:42.359Z,24.48
2022-08-22T12:36:43.665Z,24.42
2022-08-22T12:39:43.247Z,24.43
2022-08-22T12:42:59.108Z,24.38
2022-08-22T12:45:40.708Z,24.57
2022-08-22T12:48:23.691Z,24.77
2022-08-22T12:50:59.704Z,25.03
2022-08-22T12:54:13.872Z,25.28
2022-08-22T12:56:52.200Z,25.58
2022-08-22T12:59:30.525Z,25.80
2022-08-22T13:02:12.248Z,25.94
2022-08-22T13:04:49.597Z,26.18
2022-08-22T13:07:27.309Z,26.34
2022-08-22T13:10:03.627Z,26.50
2022-08-22T13:12:39.939Z,26.67
2022-08-22T13:15:31.092Z,26.89
2022-08-22T13:18:25.184Z,27.08
2022-08-22T13:20:56.880Z,27.21
2022-08-22T13:23:29.209Z,27.39
2022-08-22T13:26:08.119Z,27.48
2022-08-22T13:28:45.285Z,27.48
2022-08-22T13:31:30.155Z,27.70
2022-08-22T13:34:02.230Z,27.91
2022-08-22T13:36:35.360Z,28.11
2022-08-22T13:39:25.717Z,28.30
2022-08-22T13:41:57.776Z,28.64
2022-08-22T13:44:29.339Z,28.79
2022-08-22T13:47:14.800Z,28.80
2022-08-22T13:49:48.175Z,29.03
2022-08-22T13:52:30.169Z,29.09
2022-08-22T13:55:12.223Z,29.36
2022-08-22T13:57:51.785Z,29.36
2022-08-22T14:01:10.705Z,29.59
2022-08-22T14:03:48.821Z,29.86
2022-08-22T14:06:37.924Z,30.01
2022-08-22T14:09:31.544Z,30.29
2022-08-22T14:12:12.304Z,30.50
2022-08-22T14:14:46.207Z,30.73
2022-08-22T14:17:21.721Z,30.88
2022-08-22T14:20:01.573Z,30.99
2022-08-22T14:22:35.764Z,31.05
2022-08-22T14:25:08.521Z,30.86
2022-08-22T14:27:41.421Z,30.86
2022-08-22T14:30:19.347Z,30.87
2022-08-22T14:32:54.025Z,31.00
2022-08-22T14:35:37.677Z,31.43
2022-08-22T14:38:27.416Z,31.81
2022-08-22T14:41:05.149Z,32.20
2022-08-22T14:43:53.783Z,32.54
2022-08-22T14:46:29.746Z,32.63
2022-08-22T14:49:38.237Z,32.91
2022-08-22T14:52:19.866Z,32.99
2022-08-22T14:54:48.853Z,33.25
2022-08-22T14:57:20.774Z,33.39
2022-08-22T14:59:52.159Z,33.56
2022-08-22T15:02:28.278Z,33.74
2022-08-22T15:05:01.595Z,33.71
2022-08-22T15:07:34.877Z,33.75
2022-08-22T15:10:11.848Z,33.89
2022-08-22T15:12:48.280Z,34.03
2022-08-22T15:15:32.731Z,34.08
2022-08-22T15:18:20.881Z,34.38
2022-08-22T15:21:04.377Z,34.50
2022-08-22T15:23:46.768Z,34.65
2022-08-22T15:26:25.721Z,34.71
2022-08-22T15:29:07.253Z,34.62
2022-08-22T15:31:36.810Z,34.62
2022-08-22T15:34:18.127Z,34.60
2022-08-22T15:37:09.145Z,34.68
2022-08-22T15:40:11.928Z,34.79
2022-08-22T15:42:45.694Z,34.80
2022-08-22T15:45:33.724Z,34.55
2022-08-22T15:48:05.610Z,34.24
2022-08-22T15:50:38.771Z,33.92
2022-08-22T15:53:19.328Z,33.72
2022-08-22T15:56:21.959Z,33.48
2022-08-22T15:59:10.074Z,33.32
2022-08-22T16:01:49.835Z,33.29
2022-08-22T16:04:37.632Z,33.51
2022-08-22T16:07:28.192Z,33.77
2022-08-22T16:10:00.137Z,34.00
2022-08-22T16:12:36.932Z,34.18
2022-08-22T16:15:10.853Z,34.41
2022-08-22T16:18:02.565Z,34.41
2022-08-22T16:20:59.159Z,34.50
2022-08-22T16:23:27.537Z,34.44
2022-08-22T16:26:17.676Z,34.37
2022-08-22T16:28:59.063Z,34.40
2022-08-22T16:31:32.635Z,34.32
2022-08-22T16:34:23.829Z,34.33
2022-08-22T16:37:35.156Z,34.43
2022-08-22T16:40:19.379Z,34.58
2022-08-22T16:42:54.496Z,34.58
2022-08-22T16:45:36.599Z,34.56
2022-08-22T16:48:31.534Z,34.59
2022-08-22T16:51:14.125Z,34.59
2022-08-22T16:54:10.284Z,34.62
2022-08-22T16:57:05.537Z,34.71
2022-08-22T17:00:06.486Z,34.59
2022-08-22T17:03:05.214Z,34.60
2022-08-22T17:05:48.644Z,34.51
2022-08-22T17:08:39.269Z,34.48
2022-08-22T17:11:25.489Z,34.26
2022-08-22T17:14:13.856Z,34.16
2022-08-22T17:16:57.284Z,34.07
2022-08-22T17:19:46.792Z,34.01
2022-08-22T17:22:28.844Z,33.91
2022-08-22T17:25:16.752Z,33.75
2022-08-22T17:27:52.662Z,33.55
2022-08-22T17:30:30.333Z,33.37
2022-08-22T17:33:12.306Z,33.18
2022-08-22T17:36:03.137Z,33.01
2022-08-22T17:38:51.107Z,32.86
2022-08-22T17:41:33.010Z,32.62
2022-08-22T17:44:14.309Z,32.35
2022-08-22T17:46:50.811Z,32.17
2022-08-22T17:49:45.382Z,31.97
2022-08-22T17:52:20.676Z,31.86
2022-08-22T17:54:57.114Z,31.74
2022-08-22T17:57:32.191Z,31.62
2022-08-22T18:00:09.750Z,31.52
2022-08-22T18:02:47.684Z,31.46
2022-08-22T18:05:20.694Z,31.35
2022-08-22T18:08:03.401Z,31.23
2022-08-22T18:10:42.524Z,31.13
2022-08-22T18:13:14.957Z,31.03
2022-08-22T18:15:51.174Z,30.92
2022-08-22T18:18:31.214Z,30.84
2022-08-22T18:21:07.994Z,30.75
2022-08-22T18:23:42.506Z,30.65
2022-08-22T18:26:27.076Z,30.58
2022-08-22T18:29:01.568Z,30.46
2022-08-22T18:31:46.611Z,30.32
2022-08-22T18:34:26.013Z,30.19
2022-08-22T18:37:03.041Z,30.06
2022-08-22T18:39:43.837Z,29.95
2022-08-22T18:42:25.856Z,29.85
2022-08-22T18:44:54.528Z,29.74
2022-08-22T18:47:28.254Z,29.64
2022-08-22T18:49:57.910Z,29.56
2022-08-22T18:52:44.383Z,29.43
2022-08-22T18:55:46.543Z,29.34
2022-08-22T18:58:42.684Z,29.24
2022-08-22T19:01:42.130Z,29.13
2022-08-22T19:05:07.157Z,29.01
2022-08-22T19:08:02.170Z,28.94
2022-08-22T19:10:46.510Z,28.85
2022-08-22T19:13:25.911Z,28.76
2022-08-22T19:16:23.182Z,28.68
2022-08-22T19:18:56.633Z,28.59
2022-08-22T19:21:46.453Z,28.50
2022-08-22T19:25:06.006Z,28.36
2022-08-22T19:27:41.727Z,28.29
2022-08-22T19:30:44.002Z,28.17
2022-08-22T19:33:19.255Z,28.08
2022-08-22T19:36:11.932Z,27.99
2022-08-22T19:39:01.172Z,27.90
2022-08-22T19:41:45.482Z,27.84
2022-08-22T19:44:43.250Z,27.72
2022-08-22T19:47:28.479Z,27.62
2022-08-22T19:50:05.558Z,27.52
2022-08-22T19:53:02.676Z,27.40
2022-08-22T19:55:54.682Z,27.30
2022-08-22T19:58:33.070Z,27.21
2022-08-22T20:01:23.819Z,27.10
2022-08-22T20:03:59.196Z,26.99
2022-08-22T20:06:45.011Z,26.89
2022-08-22T20:09:27.436Z,26.81
2022-08-22T20:12:14.662Z,26.75
2022-08-22T20:14:46.007Z,26.70
2022-08-22T20:17:43.378Z,26.64
2022-08-22T20:20:40.401Z,26.57
2022-08-22T20:23:16.771Z,26.49
2022-08-22T20:25:50.324Z,26.40
2022-08-22T20:28:37.815Z,26.31
2022-08-22T20:31:13.101Z,26.25
2022-08-22T20:33:46.004Z,26.19
2022-08-22T20:36:27.427Z,26.14
2022-08-22T20:39:01.494Z,26.02
2022-08-22T20:41:35.602Z,25.98
2022-08-22T20:44:12.199Z,25.93
2022-08-22T20:46:53.532Z,25.92
2022-08-22T20:49:29.418Z,25.85
2022-08-22T20:51:59.782Z,25.76
2022-08-22T20:54:31.649Z,25.74
2022-08-22T20:57:03.015Z,25.67
2022-08-22T20:59:36.947Z,25.60
2022-08-22T21:02:14.202Z,25.57
2022-08-22T21:04:52.715Z,25.52
2022-08-22T21:07:24.735Z,25.49
2022-08-22T21:10:22.860Z,25.46
2022-08-22T21:13:14.325Z,25.43
2022-08-22T21:15:48.071Z,25.40
2022-08-22T21:18:28.978Z,25.32
2022-08-22T21:21:17.199Z,25.23
2022-08-22T21:23:51.341Z,25.13
2022-08-22T21:26:25.321Z,25.07
2022-08-22T21:29:02.427Z,25.02
2022-08-22T21:31:34.669Z,25.01
2022-08-22T21:34:05.726Z,24.94
2022-08-22T21:36:39.723Z,24.86
2022-08-22T21:39:16.660Z,24.76
2022-08-22T21:41:51.556Z,24.66
2022-08-22T21:44:34.886Z,24.57
2022-08-22T21:47:19.103Z,24.49
2022-08-22T21:50:27.161Z,24.40
2022-08-22T21:53:12.126Z,24.35
2022-08-22T21:55:44.415Z,24.30
2022-08-22T21:58:36.851Z,24.22
2022-08-22T22:01:29.584Z,24.12
2022-08-22T22:03:59.355Z,24.06
2022-08-22T22:06:28.570Z,23.99
2022-08-22T22:08:58.271Z,23.92
2022-08-22T22:11:26.684Z,23.86
2022-08-22T22:13:55.635Z,23.82
2022-08-22T22:16:28.338Z,23.79
2022-08-22T22:18:57.170Z,23.75
2022-08-22T22:21:25.877Z,23.68
2022-08-22T22:23:54.519Z,23.64
2022-08-22T22:26:28.781Z,23.60
2022-08-22T22:28:59.080Z,23.57
2022-08-22T22:31:28.060Z,23.50
2022-08-22T22:33:56.466Z,23.44
2022-08-22T22:36:27.672Z,23.39
2022-08-22T22:38:56.664Z,23.37
2022-08-22T22:41:25.769Z,23.33
2022-08-22T22:43:56.463Z,23.26
2022-08-22T22:46:26.744Z,23.22
2022-08-22T22:48:55.411Z,23.12
2022-08-22T22:51:24.689Z,23.07
2022-08-22T22:53:53.123Z,23.04
2022-08-22T22:56:23.958Z,22.95
2022-08-22T22:59:01.124Z,22.86
2022-08-22T23:02:02.344Z,22.78
2022-08-22T23:04:32.715Z,22.71
2022-08-22T23:07:01.630Z,22.65
2022-08-22T23:09:38.640Z,22.59
2022-08-22T23:12:14.144Z,22.56
2022-08-22T23:14:43.342Z,22.51
2022-08-22T23:17:13.556Z,22.42
2022-08-22T23:19:42.324Z,22.37
2022-08-22T23:22:15.196Z,22.34
2022-08-22T23:24:43.709Z,22.30
2022-08-22T23:27:13.527Z,22.25
2022-08-22T23:29:42.604Z,22.17
2022-08-22T23:32:14.082Z,22.12
2022-08-22T23:34:45.972Z,22.09
2022-08-22T23:37:17.683Z,22.03
2022-08-22T23:39:46.546Z,21.96
2022-08-22T23:42:17.978Z,21.91
2022-08-22T23:44:47.076Z,21.90
2022-08-22T23:47:17.729Z,21.86
2022-08-22T23:49:46.123Z,21.91
2022-08-22T23:52:15.321Z,21.88
2022-08-22T23:54:43.764Z,21.84
2022-08-22T23:57:12.761Z,21.80
2022-08-22T23:59:47.976Z,21.74
